sensor_id;sensor_type;location;lat;lon;timestamp;pressure;altitude;pressure_sealevel;temperature;humidity
55077;BME280;40971;44.702;11.030;2024-01-27T00:06:56;102639.03;;;-0.25;100.00
55077;BME280;40971;44.702;11.030;2024-01-27T00:16:58;102643.75;;;-0.39;100.00
55077;BME280;40971;44.702;11.030;2024-01-27T00:27:02;102643.97;;;-0.19;100.00
55077;BME280;40971;44.702;11.030;2024-01-27T00:37:07;102640.34;;;-0.40;100.00
55077;BME280;40971;44.702;11.030;2024-01-27T00:47:09;102653.06;;;-0.63;100.00
55077;BME280;40971;44.702;11.030;2024-01-27T00:57:12;102672.47;;;-0.50;100.00
55077;BME280;40971;44.702;11.030;2024-01-27T01:07:15;102687.59;;;-0.36;100.00
55077;BME280;40971;44.702;11.030;2024-01-27T01:17:19;102705.44;;;-0.29;100.00
55077;BME280;40971;44.702;11.030;2024-01-27T01:27:22;102726.97;;;-0.28;100.00
55077;BME280;40971;44.702;11.030;2024-01-27T01:37:25;102703.91;;;-0.36;100.00
55077;BME280;40971;44.702;11.030;2024-01-27T01:47:26;102710.19;;;-0.74;100.00
55077;BME280;40971;44.702;11.030;2024-01-27T01:57:28;102714.41;;;-0.71;100.00
55077;BME280;40971;44.702;11.030;2024-01-27T02:07:33;102724.34;;;-0.57;100.00
55077;BME280;40971;44.702;11.030;2024-01-27T02:17:34;102735.47;;;-0.55;100.00
55077;BME280;40971;44.702;11.030;2024-01-27T02:27:36;102746.56;;;-0.50;100.00
55077;BME280;40971;44.702;11.030;2024-01-27T02:37:38;102734.03;;;-0.35;100.00
55077;BME280;40971;44.702;11.030;2024-01-27T02:47:40;102733.63;;;-0.20;100.00
55077;BME280;40971;44.702;11.030;2024-01-27T02:57:42;102743.34;;;-0.29;100.00
55077;BME280;40971;44.702;11.030;2024-01-27T03:07:47;102744.50;;;-0.10;100.00
55077;BME280;40971;44.702;11.030;2024-01-27T03:17:49;102736.22;;;-0.21;100.00
55077;BME280;40971;44.702;11.030;2024-01-27T03:27:50;102753.66;;;0.02;100.00
55077;BME280;40971;44.702;11.030;2024-01-27T03:37:52;102748.53;;;-0.29;100.00
55077;BME280;40971;44.702;11.030;2024-01-27T03:47:53;102763.03;;;-0.54;100.00
55077;BME280;40971;44.702;11.030;2024-01-27T03:57:55;102770.56;;;-0.47;100.00
55077;BME280;40971;44.702;11.030;2024-01-27T04:08:00;102782.28;;;-1.00;100.00
55077;BME280;40971;44.702;11.030;2024-01-27T04:18:02;102785.44;;;-0.89;100.00
55077;BME280;40971;44.702;11.030;2024-01-27T04:28:06;102785.72;;;-0.98;100.00
55077;BME280;40971;44.702;11.030;2024-01-27T04:38:11;102774.09;;;-1.15;100.00
55077;BME280;40971;44.702;11.030;2024-01-27T04:48:12;102784.50;;;-1.20;100.00
55077;BME280;40971;44.702;11.030;2024-01-27T04:58:16;102777.94;;;-1.32;100.00
55077;BME280;40971;44.702;11.030;2024-01-27T05:08:18;102768.25;;;-1.57;100.00
55077;BME280;40971;44.702;11.030;2024-01-27T05:18:22;102762.41;;;-1.65;100.00
55077;BME280;40971;44.702;11.030;2024-01-27T05:28:24;102770.81;;;-1.57;100.00
55077;BME280;40971;44.702;11.030;2024-01-27T05:38:25;102792.84;;;-1.44;100.00
55077;BME280;40971;44.702;11.030;2024-01-27T05:48:30;102802.38;;;-1.11;100.00
55077;BME280;40971;44.702;11.030;2024-01-27T05:58:31;102827.63;;;-1.24;100.00
55077;BME280;40971;44.702;11.030;2024-01-27T06:08:32;102845.22;;;-1.81;100.00
55077;BME280;40971;44.702;11.030;2024-01-27T06:18:32;102839.69;;;-1.62;100.00
55077;BME280;40971;44.702;11.030;2024-01-27T06:28:34;102840.97;;;-1.43;100.00
55077;BME280;40971;44.702;11.030;2024-01-27T06:38:38;102853.19;;;-1.51;100.00
55077;BME280;40971;44.702;11.030;2024-01-27T06:48:39;102857.19;;;-1.38;100.00
55077;BME280;40971;44.702;11.030;2024-01-27T06:58:42;102851.72;;;-1.25;100.00
55077;BME280;40971;44.702;11.030;2024-01-27T07:08:43;102852.97;;;-1.04;100.00
55077;BME280;40971;44.702;11.030;2024-01-27T07:18:46;102856.16;;;-0.94;100.00
55077;BME280;40971;44.702;11.030;2024-01-27T07:28:51;102868.47;;;-0.36;100.00
55077;BME280;40971;44.702;11.030;2024-01-27T07:38:53;102887.00;;;-0.22;100.00
55077;BME280;40971;44.702;11.030;2024-01-27T07:48:54;102868.72;;;0.15;100.00
55077;BME280;40971;44.702;11.030;2024-01-27T07:58:56;102880.84;;;0.71;100.00
55077;BME280;40971;44.702;11.030;2024-01-27T08:09:00;102880.44;;;1.11;100.00
55077;BME280;40971;44.702;11.030;2024-01-27T08:19:04;102881.94;;;1.18;100.00
55077;BME280;40971;44.702;11.030;2024-01-27T08:29:07;102904.91;;;0.75;100.00
55077;BME280;40971;44.702;11.030;2024-01-27T08:39:09;102914.44;;;1.28;100.00
55077;BME280;40971;44.702;11.030;2024-01-27T08:49:14;102937.00;;;1.23;100.00
55077;BME280;40971;44.702;11.030;2024-01-27T08:59:16;102923.63;;;1.10;100.00
55077;BME280;40971;44.702;11.030;2024-01-27T09:09:21;102927.06;;;1.37;100.00
55077;BME280;40971;44.702;11.030;2024-01-27T09:19:23;102926.28;;;1.61;100.00
55077;BME280;40971;44.702;11.030;2024-01-27T09:29:25;102914.06;;;1.90;100.00
55077;BME280;40971;44.702;11.030;2024-01-27T09:39:27;102941.38;;;2.46;100.00
55077;BME280;40971;44.702;11.030;2024-01-27T09:49:29;102928.28;;;2.72;100.00
55077;BME280;40971;44.702;11.030;2024-01-27T09:59:33;102934.28;;;3.38;100.00
55077;BME280;40971;44.702;11.030;2024-01-27T10:09:36;102938.28;;;3.46;100.00
55077;BME280;40971;44.702;11.030;2024-01-27T10:19:41;102939.81;;;3.92;100.00
55077;BME280;40971;44.702;11.030;2024-01-27T10:29:54;102945.84;;;4.13;100.00
55077;BME280;40971;44.702;11.030;2024-01-27T10:40:04;102933.44;;;4.57;100.00
55077;BME280;40971;44.702;11.030;2024-01-27T10:50:08;102932.75;;;5.08;100.00
55077;BME280;40971;44.702;11.030;2024-01-27T11:00:12;102931.34;;;5.54;100.00
55077;BME280;40971;44.702;11.030;2024-01-27T11:10:17;102934.88;;;5.87;100.00
55077;BME280;40971;44.702;11.030;2024-01-27T11:20:23;102937.41;;;6.38;100.00
55077;BME280;40971;44.702;11.030;2024-01-27T11:40:31;102903.22;;;7.49;100.00
55077;BME280;40971;44.702;11.030;2024-01-27T11:50:35;102893.38;;;7.97;100.00
55077;BME280;40971;44.702;11.030;2024-01-27T12:00:37;102897.63;;;8.42;100.00
55077;BME280;40971;44.702;11.030;2024-01-27T12:10:40;102902.66;;;8.86;94.40
55077;BME280;40971;44.702;11.030;2024-01-27T12:20:42;102923.75;;;8.84;97.92
55077;BME280;40971;44.702;11.030;2024-01-27T12:30:44;102924.34;;;8.61;99.83
55077;BME280;40971;44.702;11.030;2024-01-27T12:40:47;102917.38;;;9.15;95.58
55077;BME280;40971;44.702;11.030;2024-01-27T12:50:51;102916.78;;;9.24;94.16
55077;BME280;40971;44.702;11.030;2024-01-27T13:00:56;102901.22;;;9.60;92.15
55077;BME280;40971;44.702;11.030;2024-01-27T13:10:59;102889.44;;;10.16;89.64
55077;BME280;40971;44.702;11.030;2024-01-27T13:21:00;102868.56;;;10.98;86.70
55077;BME280;40971;44.702;11.030;2024-01-27T13:31:01;102876.44;;;11.68;82.05
55077;BME280;40971;44.702;11.030;2024-01-27T13:41:04;102876.50;;;12.12;77.84
55077;BME280;40971;44.702;11.030;2024-01-27T13:51:08;102879.91;;;12.68;76.67
55077;BME280;40971;44.702;11.030;2024-01-27T14:01:11;102879.84;;;12.37;77.70
55077;BME280;40971;44.702;11.030;2024-01-27T14:11:15;102883.00;;;11.97;77.11
55077;BME280;40971;44.702;11.030;2024-01-27T14:21:20;102900.13;;;9.38;95.95
55077;BME280;40971;44.702;11.030;2024-01-27T14:31:23;102918.34;;;9.66;96.23
55077;BME280;40971;44.702;11.030;2024-01-27T14:41:25;102903.16;;;9.31;99.29
55077;BME280;40971;44.702;11.030;2024-01-27T14:51:27;102922.72;;;9.53;97.66
55077;BME280;40971;44.702;11.030;2024-01-27T15:01:29;102928.56;;;8.21;100.00
55077;BME280;40971;44.702;11.030;2024-01-27T15:11:30;102943.97;;;6.45;100.00
55077;BME280;40971;44.702;11.030;2024-01-27T15:21:32;102965.31;;;5.88;100.00
55077;BME280;40971;44.702;11.030;2024-01-27T15:31:35;102978.34;;;5.88;100.00
55077;BME280;40971;44.702;11.030;2024-01-27T15:41:37;102977.59;;;5.86;100.00
55077;BME280;40971;44.702;11.030;2024-01-27T15:51:40;102987.38;;;5.28;100.00
55077;BME280;40971;44.702;11.030;2024-01-27T16:01:43;103001.88;;;4.98;100.00
55077;BME280;40971;44.702;11.030;2024-01-27T16:11:45;103031.19;;;5.21;100.00
55077;BME280;40971;44.702;11.030;2024-01-27T16:21:47;103048.56;;;5.21;100.00
55077;BME280;40971;44.702;11.030;2024-01-27T16:31:49;103041.88;;;5.15;100.00
55077;BME280;40971;44.702;11.030;2024-01-27T16:41:51;103054.94;;;5.15;100.00
55077;BME280;40971;44.702;11.030;2024-01-27T16:51:52;103058.25;;;4.61;100.00
55077;BME280;40971;44.702;11.030;2024-01-27T17:01:53;103070.41;;;4.61;100.00
55077;BME280;40971;44.702;11.030;2024-01-27T17:11:55;103090.56;;;4.17;100.00
55077;BME280;40971;44.702;11.030;2024-01-27T17:21:57;103129.47;;;4.20;100.00
55077;BME280;40971;44.702;11.030;2024-01-27T17:31:59;103130.09;;;4.05;100.00
55077;BME280;40971;44.702;11.030;2024-01-27T17:42:02;103133.66;;;4.02;100.00
55077;BME280;40971;44.702;11.030;2024-01-27T17:52:04;103158.41;;;3.91;100.00
55077;BME280;40971;44.702;11.030;2024-01-27T18:02:08;103166.28;;;3.68;100.00
55077;BME280;40971;44.702;11.030;2024-01-27T18:12:13;103193.59;;;3.56;100.00
55077;BME280;40971;44.702;11.030;2024-01-27T18:22:15;103223.47;;;3.46;100.00
55077;BME280;40971;44.702;11.030;2024-01-27T18:32:18;103229.84;;;3.37;100.00
55077;BME280;40971;44.702;11.030;2024-01-27T18:42:20;103241.50;;;3.26;100.00
55077;BME280;40971;44.702;11.030;2024-01-27T18:52:24;103240.66;;;3.25;100.00
55077;BME280;40971;44.702;11.030;2024-01-27T19:02:29;103255.31;;;3.28;100.00
55077;BME280;40971;44.702;11.030;2024-01-27T19:12:32;103265.72;;;3.02;100.00
55077;BME280;40971;44.702;11.030;2024-01-27T19:22:37;103278.56;;;2.55;100.00
55077;BME280;40971;44.702;11.030;2024-01-27T19:32:42;103309.31;;;2.67;100.00
55077;BME280;40971;44.702;11.030;2024-01-27T19:42:46;103319.94;;;2.60;100.00
55077;BME280;40971;44.702;11.030;2024-01-27T19:52:51;103323.13;;;2.42;100.00
55077;BME280;40971;44.702;11.030;2024-01-27T20:02:59;103325.00;;;2.64;100.00
55077;BME280;40971;44.702;11.030;2024-01-27T20:13:05;103338.78;;;2.66;100.00
55077;BME280;40971;44.702;11.030;2024-01-27T20:23:10;103349.94;;;2.70;100.00
55077;BME280;40971;44.702;11.030;2024-01-27T20:33:16;103365.69;;;2.64;100.00
55077;BME280;40971;44.702;11.030;2024-01-27T20:43:20;103365.13;;;2.82;100.00
55077;BME280;40971;44.702;11.030;2024-01-27T20:53:26;103355.91;;;2.72;100.00
55077;BME280;40971;44.702;11.030;2024-01-27T21:03:28;103405.06;;;2.78;100.00
55077;BME280;40971;44.702;11.030;2024-01-27T21:13:33;103407.41;;;2.87;100.00
55077;BME280;40971;44.702;11.030;2024-01-27T21:23:34;103423.19;;;2.79;100.00
55077;BME280;40971;44.702;11.030;2024-01-27T21:33:36;103424.47;;;2.66;100.00
55077;BME280;40971;44.702;11.030;2024-01-27T21:43:39;103434.34;;;2.55;100.00
55077;BME280;40971;44.702;11.030;2024-01-27T21:53:41;103450.91;;;2.51;100.00
55077;BME280;40971;44.702;11.030;2024-01-27T22:03:46;103448.78;;;2.64;100.00
55077;BME280;40971;44.702;11.030;2024-01-27T22:13:48;103442.81;;;2.62;100.00
55077;BME280;40971;44.702;11.030;2024-01-27T22:23:51;103448.50;;;2.44;100.00
55077;BME280;40971;44.702;11.030;2024-01-27T22:33:53;103477.16;;;2.41;100.00
55077;BME280;40971;44.702;11.030;2024-01-27T22:43:55;103496.00;;;2.47;100.00
55077;BME280;40971;44.702;11.030;2024-01-27T22:53:58;103500.56;;;2.39;100.00
55077;BME280;40971;44.702;11.030;2024-01-27T23:04:00;103508.53;;;2.33;100.00
55077;BME280;40971;44.702;11.030;2024-01-27T23:14:03;103514.56;;;2.33;100.00
55077;BME280;40971;44.702;11.030;2024-01-27T23:24:05;103499.56;;;2.43;100.00
55077;BME280;40971;44.702;11.030;2024-01-27T23:34:09;103509.69;;;2.23;100.00
55077;BME280;40971;44.702;11.030;2024-01-27T23:44:13;103511.28;;;2.27;100.00
55077;BME280;40971;44.702;11.030;2024-01-27T23:54:15;103502.59;;;2.28;100.00
